Terminal Aerodrome Forecast
Issued by NWS

Home | Current Version | Previous Version | Text Only | Print | Product List | Glossary On
Versions: 1 2 3 4 5 6 7 8 9 10 11 12
000
FTUS45 KABQ 291128
TAFFMN
TAF
KFMN 291128Z 2912/3012 06005KT P6SM FEW250
     FM291700 28010KT P6SM SCT250
     FM292000 29014G22KT P6SM SCT250
     FM300100 32010KT P6SM SCT250
     FM300800 06005KT P6SM FEW250=

USA.gov is the U.S. government's official web portal to all federal, state and local government web resources and services.